createdAt,value
2022-08-10T00:01:34.562Z,48.20
2022-08-10T00:04:01.823Z,48.40
2022-08-10T00:06:28.699Z,48.30
2022-08-10T00:09:33.222Z,48.30
2022-08-10T00:12:19.725Z,48.50
2022-08-10T00:14:46.773Z,48.30
2022-08-10T00:17:13.911Z,48.30
2022-08-10T00:49:31.051Z,48.50
2022-08-10T00:51:57.980Z,48.70
2022-08-10T00:54:25.278Z,48.70
2022-08-10T01:12:40.506Z,50.00
2022-08-10T01:15:19.221Z,50.20
2022-08-10T01:17:51.608Z,50.20
2022-08-10T01:20:31.071Z,50.40
2022-08-10T01:23:19.692Z,50.10
2022-08-10T01:26:11.800Z,49.80
2022-08-10T01:29:35.895Z,49.90
2022-08-10T01:32:04.788Z,49.80
2022-08-10T01:34:39.585Z,50.20
2022-08-10T01:37:26.722Z,50.50
2022-08-10T01:39:56.452Z,49.90
2022-08-10T01:42:24.136Z,49.80
2022-08-10T01:44:56.694Z,50.00
2022-08-10T01:48:02.835Z,50.60
2022-08-10T01:50:59.487Z,51.00
2022-08-10T01:53:40.155Z,51.60
2022-08-10T01:56:09.460Z,51.70
2022-08-10T01:58:36.925Z,52.40
2022-08-10T02:01:04.618Z,53.00
2022-08-10T02:03:31.939Z,53.50
2022-08-10T02:06:01.386Z,53.60
2022-08-10T02:08:29.290Z,53.80
2022-08-10T02:10:58.928Z,54.20
2022-08-10T02:13:27.354Z,54.00
2022-08-10T02:16:01.437Z,54.30
2022-08-10T02:18:30.766Z,54.30
2022-08-10T02:21:00.536Z,54.90
2022-08-10T02:23:29.525Z,54.60
2022-08-10T02:25:58.219Z,55.00
2022-08-10T02:32:44.303Z,55.30
2022-08-10T02:35:22.198Z,55.60
2022-08-10T02:37:51.525Z,55.40
2022-08-10T02:42:18.589Z,55.60
2022-08-10T02:45:24.219Z,55.70
2022-08-10T02:46:01.223Z,55.90
2022-08-10T02:48:35.019Z,55.70
2022-08-10T02:51:05.571Z,56.30
2022-08-10T02:53:55.043Z,56.00
2022-08-10T02:56:43.677Z,56.10
2022-08-10T02:59:15.684Z,56.50
2022-08-10T03:01:46.678Z,56.50
2022-08-10T03:04:19.787Z,56.80
2022-08-10T03:07:10.797Z,56.90
2022-08-10T03:09:38.845Z,57.00
2022-08-10T03:12:36.131Z,56.90
2022-08-10T03:14:54.857Z,57.20
2022-08-10T03:17:22.425Z,57.20
2022-08-10T03:20:33.994Z,57.30
2022-08-10T03:22:38.143Z,56.90
2022-08-10T03:25:05.682Z,55.30
2022-08-10T03:27:32.756Z,55.10
2022-08-10T03:30:37.372Z,54.80
2022-08-10T03:33:05.412Z,54.80
2022-08-10T03:35:32.382Z,52.70
2022-08-10T03:38:00.391Z,52.40
2022-08-10T03:40:45.095Z,53.30
2022-08-10T03:43:15.864Z,53.60
2022-08-10T03:45:55.469Z,53.00
2022-08-10T03:48:24.341Z,52.70
2022-08-10T03:50:59.843Z,53.40
2022-08-10T03:54:05.734Z,53.70
2022-08-10T03:56:28.037Z,54.00
2022-08-10T03:58:58.364Z,53.30
2022-08-10T04:02:42.172Z,53.60
2022-08-10T04:04:14.628Z,53.80
2022-08-10T04:06:43.487Z,54.40
2022-08-10T04:09:10.503Z,55.00
2022-08-10T04:11:37.453Z,55.50
2022-08-10T04:14:38.130Z,56.00
2022-08-10T04:16:55.125Z,56.30
2022-08-10T04:19:22.660Z,56.80
2022-08-10T04:21:56.973Z,57.50
2022-08-10T04:24:31.959Z,57.30
2022-08-10T04:27:01.073Z,57.70
2022-08-10T04:33:46.622Z,58.40
2022-08-10T04:36:15.431Z,57.90
2022-08-10T04:38:43.259Z,58.20
2022-08-10T04:41:10.237Z,58.60
2022-08-10T04:43:37.056Z,58.90
2022-08-10T04:46:03.992Z,58.50
2022-08-10T04:48:59.549Z,59.10
2022-08-10T04:51:27.836Z,59.10
2022-08-10T04:54:05.682Z,59.60
2022-08-10T04:56:38.062Z,59.50
2022-08-10T04:59:09.749Z,59.30
2022-08-10T05:02:22.541Z,59.20
2022-08-10T05:04:37.949Z,59.40
2022-08-10T05:07:07.420Z,58.70
2022-08-10T05:09:34.436Z,58.60
2022-08-10T05:12:21.425Z,58.80
2022-08-10T05:14:48.466Z,58.80
2022-08-10T05:17:15.810Z,59.00
2022-08-10T05:20:03.647Z,59.00
2022-08-10T05:22:29.891Z,59.40
2022-08-10T05:24:56.581Z,59.10
2022-08-10T05:27:23.813Z,59.20
2022-08-10T05:30:01.580Z,59.30
2022-08-10T05:32:30.524Z,59.40
2022-08-10T05:34:58.488Z,59.10
2022-08-10T05:38:12.128Z,58.80
2022-08-10T05:42:41.279Z,63.20
2022-08-10T05:45:15.772Z,63.30
2022-08-10T05:48:54.255Z,58.90
2022-08-10T05:50:35.023Z,59.00
2022-08-10T05:53:56.734Z,56.90
2022-08-10T05:55:49.836Z,58.80
2022-08-10T05:58:18.425Z,57.70
2022-08-10T06:00:50.236Z,59.00
2022-08-10T06:03:24.164Z,59.10
2022-08-10T06:05:54.234Z,56.90
2022-08-10T06:08:24.164Z,56.50
2022-08-10T06:12:24.024Z,55.50
2022-08-10T06:14:13.696Z,54.20
2022-08-10T06:16:43.908Z,54.40
2022-08-10T06:19:14.606Z,55.40
2022-08-10T06:22:00.832Z,53.90
2022-08-10T06:24:32.650Z,53.00
2022-08-10T06:27:00.000Z,53.00
2022-08-10T06:29:49.170Z,53.10
2022-08-10T06:32:16.730Z,52.90
2022-08-10T06:34:46.586Z,52.80
2022-08-10T06:37:16.154Z,53.10
2022-08-10T06:39:44.079Z,52.70
2022-08-10T06:42:17.582Z,52.40
2022-08-10T06:44:51.439Z,53.00
2022-08-10T06:47:23.144Z,54.70
2022-08-10T06:49:52.409Z,54.60
2022-08-10T06:52:19.945Z,55.00
2022-08-10T06:54:47.708Z,56.20
2022-08-10T06:57:18.883Z,56.30
2022-08-10T06:59:49.087Z,57.20
2022-08-10T07:02:19.920Z,56.30
2022-08-10T07:05:07.449Z,57.00
2022-08-10T07:07:36.842Z,57.10
2022-08-10T07:10:04.238Z,57.00
2022-08-10T07:12:32.082Z,56.60
2022-08-10T07:14:59.833Z,56.60
2022-08-10T07:17:27.692Z,56.70
2022-08-10T07:19:56.380Z,56.30
2022-08-10T07:23:27.115Z,56.50
2022-08-10T07:25:15.557Z,55.90
2022-08-10T07:28:00.108Z,56.00
2022-08-10T07:30:33.044Z,56.20
2022-08-10T07:33:01.398Z,57.00
2022-08-10T07:39:59.552Z,55.60
2022-08-10T07:42:31.778Z,55.90
2022-08-10T07:44:59.219Z,56.50
2022-08-10T07:47:52.422Z,55.70
2022-08-10T07:50:20.705Z,56.50
2022-08-10T07:52:51.829Z,56.60
2022-08-10T07:56:04.729Z,56.00
2022-08-10T07:58:08.122Z,56.40
2022-08-10T08:00:35.480Z,55.40
2022-08-10T08:03:03.863Z,56.10
2022-08-10T08:05:57.524Z,55.40
2022-08-10T08:08:21.608Z,55.30
2022-08-10T08:10:49.179Z,55.30
2022-08-10T08:13:17.158Z,55.60
2022-08-10T08:16:18.555Z,55.20
2022-08-10T08:18:32.237Z,55.50
2022-08-10T08:21:04.081Z,55.30
2022-08-10T08:24:08.802Z,55.20
2022-08-10T08:26:39.229Z,55.30
2022-08-10T08:29:08.635Z,54.70
2022-08-10T08:31:36.379Z,54.50
2022-08-10T08:34:21.771Z,54.80
2022-08-10T08:41:07.502Z,54.60
2022-08-10T08:43:46.335Z,54.90
2022-08-10T08:46:28.911Z,54.60
2022-08-10T08:49:11.388Z,55.10
2022-08-10T08:52:07.220Z,54.80
2022-08-10T08:54:44.780Z,54.40
2022-08-10T08:57:48.999Z,54.40
2022-08-10T09:00:10.139Z,54.60
2022-08-10T09:02:54.451Z,54.80
2022-08-10T09:05:31.072Z,54.30
2022-08-10T09:08:47.934Z,53.70
2022-08-10T09:11:30.786Z,53.80
2022-08-10T09:14:01.197Z,54.20
2022-08-10T09:16:30.605Z,53.90
2022-08-10T09:18:57.423Z,53.80
2022-08-10T09:21:27.078Z,53.50
2022-08-10T09:24:01.407Z,53.10
2022-08-10T09:26:40.496Z,53.50
2022-08-10T09:29:12.840Z,53.10
2022-08-10T09:31:55.731Z,53.00
2022-08-10T09:36:21.773Z,51.90
2022-08-10T09:38:32.316Z,53.30
2022-08-10T09:41:16.527Z,53.40
2022-08-10T09:44:02.299Z,52.60
2022-08-10T09:46:39.895Z,51.60
2022-08-10T09:49:18.904Z,51.50
2022-08-10T09:52:09.626Z,52.40
2022-08-10T09:54:46.702Z,51.60
2022-08-10T09:57:43.028Z,51.50
2022-08-10T10:00:12.603Z,50.90
2022-08-10T10:02:49.308Z,50.40
2022-08-10T10:05:19.340Z,50.60
2022-08-10T10:07:50.965Z,49.60
2022-08-10T10:10:20.436Z,49.90
2022-08-10T10:12:50.552Z,49.80
2022-08-10T10:15:24.474Z,50.30
2022-08-10T10:18:07.578Z,49.90
2022-08-10T10:20:50.191Z,49.50
2022-08-10T10:23:36.174Z,49.70
2022-08-10T10:26:17.635Z,48.90
2022-08-10T10:31:35.045Z,48.40
2022-08-10T10:34:20.515Z,49.00
2022-08-10T10:38:01.586Z,47.90
2022-08-10T10:40:14.243Z,48.00
2022-08-10T10:42:59.481Z,48.00
2022-08-10T10:45:50.783Z,48.60
2022-08-10T10:48:24.381Z,48.50
2022-08-10T10:50:56.595Z,49.00
2022-08-10T10:53:26.342Z,48.60
2022-08-10T10:56:14.754Z,47.80
2022-08-10T10:58:42.451Z,46.90
2022-08-10T11:01:18.720Z,47.40
2022-08-10T11:03:52.433Z,48.00
2022-08-10T11:06:40.632Z,46.70
2022-08-10T11:10:07.018Z,46.60
2022-08-10T11:12:11.297Z,46.70
2022-08-10T11:14:54.101Z,46.90
2022-08-10T11:17:33.073Z,46.40
2022-08-10T11:20:04.294Z,46.50
2022-08-10T11:22:41.117Z,46.30
2022-08-10T11:25:20.334Z,46.00
2022-08-10T11:27:49.838Z,46.10
2022-08-10T11:30:27.151Z,46.50
2022-08-10T11:33:30.714Z,46.20
2022-08-10T11:36:04.042Z,46.40
2022-08-10T11:42:28.719Z,46.00
2022-08-10T11:45:03.150Z,46.10
2022-08-10T11:47:39.829Z,46.50
2022-08-10T11:50:25.346Z,45.90
2022-08-10T11:53:10.528Z,46.30
2022-08-10T11:55:38.254Z,45.10
2022-08-10T12:05:46.611Z,44.90
2022-08-10T12:10:09.094Z,44.90
2022-08-10T12:15:45.536Z,44.70
2022-08-10T12:18:25.409Z,44.20
2022-08-10T12:20:56.361Z,44.70
2022-08-10T12:23:39.290Z,44.30
2022-08-10T12:26:24.524Z,43.60
2022-08-10T12:29:03.869Z,43.50
2022-08-10T12:31:51.111Z,43.70
2022-08-10T12:34:30.666Z,44.10
2022-08-10T12:40:47.669Z,43.00
2022-08-10T12:44:04.472Z,43.30
2022-08-10T12:46:27.425Z,42.80
2022-08-10T12:49:04.022Z,43.40
2022-08-10T12:51:32.892Z,42.70
2022-08-10T12:54:17.456Z,43.10
2022-08-10T12:57:02.012Z,42.90
2022-08-10T12:59:30.758Z,43.00
2022-08-10T13:02:09.715Z,42.80
2022-08-10T13:04:40.177Z,42.70
2022-08-10T13:07:07.923Z,42.90
2022-08-10T13:09:56.694Z,42.60
2022-08-10T13:12:38.680Z,42.50
2022-08-10T13:15:25.303Z,42.40
2022-08-10T13:18:03.091Z,41.90
2022-08-10T13:20:34.760Z,42.60
2022-08-10T13:23:03.214Z,42.20
2022-08-10T13:25:32.388Z,42.20
2022-08-10T13:28:37.248Z,42.00
2022-08-10T13:30:54.166Z,42.10
2022-08-10T13:34:41.632Z,42.10
2022-08-10T13:36:14.792Z,42.20
2022-08-10T13:39:19.639Z,42.90
2022-08-10T13:41:47.198Z,42.00
2022-08-10T13:44:42.273Z,41.80
2022-08-10T13:47:10.776Z,41.70
2022-08-10T13:49:46.105Z,42.90
2022-08-10T13:52:18.897Z,41.80
2022-08-10T13:54:46.961Z,41.60
2022-08-10T13:57:18.941Z,41.50
2022-08-10T14:00:34.661Z,41.50
2022-08-10T14:02:39.130Z,41.80
2022-08-10T14:05:07.189Z,41.60
2022-08-10T14:07:37.726Z,41.80
2022-08-10T14:11:09.384Z,41.40
2022-08-10T14:13:11.552Z,41.10
2022-08-10T14:15:39.222Z,41.80
2022-08-10T14:18:09.539Z,41.60
2022-08-10T14:20:37.715Z,41.80
2022-08-10T14:23:06.937Z,41.10
2022-08-10T14:25:44.501Z,41.30
2022-08-10T14:28:11.967Z,41.40
2022-08-10T14:30:39.764Z,40.70
2022-08-10T14:33:07.212Z,41.10
2022-08-10T14:36:19.216Z,40.90
2022-08-10T14:42:41.547Z,41.20
2022-08-10T14:45:20.889Z,41.60
2022-08-10T14:47:53.686Z,41.70
2022-08-10T14:50:32.550Z,41.40
2022-08-10T14:53:04.866Z,41.90
2022-08-10T14:55:58.351Z,40.50
2022-08-10T14:58:26.553Z,41.10
2022-08-10T15:00:54.690Z,40.60
2022-08-10T15:03:58.788Z,41.30
2022-08-10T15:06:17.028Z,40.60
2022-08-10T15:08:46.924Z,40.60
2022-08-10T15:12:14.760Z,41.30
2022-08-10T15:14:29.231Z,40.70
2022-08-10T15:16:53.413Z,40.40
2022-08-10T15:20:01.453Z,41.30
2022-08-10T15:22:35.774Z,40.80
2022-08-10T15:25:19.138Z,40.30
2022-08-10T15:27:55.079Z,40.30
2022-08-10T15:30:31.393Z,40.40
2022-08-10T15:33:57.557Z,41.10
2022-08-10T15:36:33.939Z,40.60
2022-08-10T15:39:02.540Z,40.40
2022-08-10T15:41:58.582Z,40.50
2022-08-10T15:44:34.976Z,40.40
2022-08-10T15:47:04.225Z,39.60
2022-08-10T15:49:34.443Z,40.30
2022-08-10T15:52:07.377Z,40.40
2022-08-10T15:54:39.629Z,40.00
2022-08-10T15:57:08.188Z,40.40
2022-08-10T15:59:44.643Z,39.80
2022-08-10T16:02:16.842Z,39.90
2022-08-10T16:04:53.509Z,39.90
2022-08-10T16:07:46.297Z,39.90
2022-08-10T16:10:26.382Z,40.80
2022-08-10T16:13:00.802Z,40.20
2022-08-10T16:15:28.690Z,40.10
2022-08-10T16:17:59.970Z,39.90
2022-08-10T16:20:28.229Z,40.10
2022-08-10T16:23:00.743Z,39.80
2022-08-10T16:25:48.367Z,40.10
2022-08-10T16:28:20.072Z,39.70
2022-08-10T16:30:54.951Z,39.90
2022-08-10T16:33:53.815Z,40.00
2022-08-10T16:36:21.980Z,40.20
2022-08-10T16:38:50.767Z,39.70
2022-08-10T16:42:02.642Z,40.40
2022-08-10T16:44:07.194Z,40.10
2022-08-10T16:46:34.539Z,39.70
2022-08-10T16:49:02.278Z,39.90
2022-08-10T16:51:30.673Z,39.70
2022-08-10T16:53:59.209Z,40.00
2022-08-10T16:56:34.246Z,40.10
2022-08-10T16:59:17.566Z,40.30
2022-08-10T17:01:51.588Z,40.70
2022-08-10T17:04:21.773Z,40.50
2022-08-10T17:06:55.866Z,40.20
2022-08-10T17:09:26.315Z,40.30
2022-08-10T17:11:54.833Z,40.60
2022-08-10T17:14:26.149Z,40.30
2022-08-10T17:16:55.541Z,40.60
2022-08-10T17:19:24.648Z,40.90
2022-08-10T17:21:57.008Z,40.60
2022-08-10T17:24:29.992Z,40.80
2022-08-10T17:28:03.843Z,40.60
2022-08-10T17:29:57.758Z,40.70
2022-08-10T17:32:32.974Z,40.50
2022-08-10T17:35:23.902Z,40.20
2022-08-10T17:37:59.042Z,40.10
2022-08-10T17:40:28.042Z,40.10
2022-08-10T17:42:56.966Z,40.60
2022-08-10T17:45:48.263Z,40.60
2022-08-10T17:48:13.447Z,41.30
2022-08-10T17:50:42.446Z,40.90
2022-08-10T17:53:15.118Z,40.80
2022-08-10T17:55:44.484Z,41.00
2022-08-10T17:58:18.438Z,41.40
2022-08-10T18:00:50.922Z,41.70
2022-08-10T18:03:25.285Z,41.50
2022-08-10T18:05:58.492Z,42.40
2022-08-10T18:08:28.125Z,41.50
2022-08-10T18:10:58.163Z,41.70
2022-08-10T18:13:27.845Z,42.60
2022-08-10T18:16:15.900Z,41.40
2022-08-10T18:18:43.231Z,42.00
2022-08-10T18:21:31.495Z,42.10
2022-08-10T18:24:05.857Z,41.80
2022-08-10T18:26:36.767Z,41.70
2022-08-10T18:29:07.014Z,41.40
2022-08-10T18:31:34.629Z,42.30
2022-08-10T18:34:02.307Z,41.90
2022-08-10T18:36:30.167Z,42.80
2022-08-10T18:38:59.681Z,43.20
2022-08-10T18:41:35.637Z,42.90
2022-08-10T18:59:11.685Z,45.70
2022-08-10T19:01:57.691Z,45.00
2022-08-10T19:08:49.179Z,45.50
2022-08-10T19:11:35.761Z,45.40
2022-08-10T19:14:10.467Z,46.10
2022-08-10T19:16:40.254Z,46.80
2022-08-10T19:19:32.417Z,46.30
2022-08-10T19:22:04.985Z,46.80
2022-08-10T19:24:49.335Z,47.00
2022-08-10T19:27:35.383Z,47.50
2022-08-10T19:30:12.393Z,46.60
2022-08-10T19:32:55.432Z,47.40
2022-08-10T19:35:34.479Z,47.50
2022-08-10T19:38:33.056Z,48.10
2022-08-10T19:41:19.494Z,47.60
2022-08-10T19:44:00.681Z,47.60
2022-08-10T19:46:44.071Z,47.70
2022-08-10T19:49:16.547Z,47.50
2022-08-10T19:52:00.701Z,47.90
2022-08-10T19:54:44.658Z,47.70
2022-08-10T19:57:11.986Z,47.30
2022-08-10T20:00:17.518Z,47.70
2022-08-10T20:02:47.032Z,47.90
2022-08-10T20:09:06.975Z,47.60
2022-08-10T20:11:44.181Z,47.60
2022-08-10T20:14:21.310Z,47.80
2022-08-10T20:16:50.213Z,49.60
2022-08-10T20:19:18.200Z,48.80
2022-08-10T20:22:02.741Z,47.60
2022-08-10T20:24:49.985Z,47.60
2022-08-10T20:27:59.120Z,47.60
2022-08-10T20:30:15.132Z,47.40
2022-08-10T20:32:48.110Z,47.50
2022-08-10T20:35:21.171Z,47.40
2022-08-10T20:38:03.550Z,47.20
2022-08-10T20:40:39.354Z,47.10
2022-08-10T20:43:29.406Z,47.30
2022-08-10T20:46:08.550Z,47.10
2022-08-10T20:48:40.936Z,47.00
2022-08-10T20:51:11.497Z,46.90
2022-08-10T20:53:41.504Z,46.90
2022-08-10T20:56:27.088Z,46.80
2022-08-10T20:58:59.709Z,46.90
2022-08-10T21:02:06.598Z,46.80
2022-08-10T21:04:44.059Z,47.00
2022-08-10T21:08:05.015Z,47.00
2022-08-10T21:10:47.975Z,46.90
2022-08-10T21:13:33.685Z,47.00
2022-08-10T21:16:03.707Z,46.90
2022-08-10T21:18:44.071Z,47.00
2022-08-10T21:21:11.763Z,47.10
2022-08-10T21:23:48.452Z,47.00
2022-08-10T21:26:19.176Z,47.00
2022-08-10T21:29:05.970Z,47.00
2022-08-10T21:31:44.815Z,47.00
2022-08-10T21:34:17.522Z,47.00
2022-08-10T21:36:50.641Z,47.00
2022-08-10T21:39:42.262Z,47.00
2022-08-10T21:42:37.823Z,47.10
2022-08-10T21:45:58.018Z,47.10
2022-08-10T21:48:37.998Z,47.20
2022-08-10T21:52:00.534Z,47.20
2022-08-10T21:54:42.620Z,47.30
2022-08-10T21:57:43.384Z,47.20
2022-08-10T22:00:31.611Z,47.30
2022-08-10T22:03:19.057Z,47.30
2022-08-10T22:06:10.484Z,47.30
2022-08-10T22:09:16.122Z,47.20
2022-08-10T22:12:03.146Z,47.50
2022-08-10T22:14:50.944Z,47.30
2022-08-10T22:18:00.650Z,47.30
2022-08-10T22:20:45.128Z,47.50
2022-08-10T22:23:41.469Z,47.50
2022-08-10T22:26:36.692Z,47.50
2022-08-10T22:29:26.104Z,47.60
2022-08-10T22:32:41.111Z,47.60
2022-08-10T22:35:32.975Z,47.60
2022-08-10T22:38:24.505Z,47.70
2022-08-10T22:41:10.349Z,47.60
2022-08-10T22:43:57.298Z,47.90
2022-08-10T22:46:44.060Z,47.60
2022-08-10T22:49:11.397Z,47.50
2022-08-10T22:51:40.356Z,47.60
2022-08-10T22:55:09.178Z,47.50
2022-08-10T22:58:02.229Z,47.50
2022-08-10T23:00:33.734Z,47.60
2022-08-10T23:03:21.831Z,47.60
2022-08-10T23:05:55.708Z,47.70
2022-08-10T23:12:18.269Z,47.70
2022-08-10T23:14:59.405Z,47.80
2022-08-10T23:18:00.979Z,47.70
2022-08-10T23:20:28.662Z,47.80
2022-08-10T23:23:00.009Z,47.80
2022-08-10T23:25:30.294Z,47.90
2022-08-10T23:28:00.942Z,47.90
2022-08-10T23:30:35.993Z,47.90
2022-08-10T23:33:05.012Z,48.00
2022-08-10T23:36:30.146Z,47.80
2022-08-10T23:38:30.008Z,47.90
2022-08-10T23:40:59.667Z,47.90
2022-08-10T23:55:19.244Z,47.90
2022-08-10T23:57:52.540Z,48.00
